Tuesday, June 28, 2016
13:15 UTC
  |  Log In   |  Register Free
Airport Search:

Yellowstone Regional Airport
(KCOD)

Yellowstone Regional Airport Diagram
No Airport Diagram Available

FAA data valid effective May 26 2016 - Jul 21 2016 (unless otherwise noted).

 
 
 
 
 
 
 
 
 
 
 
 
 
 
Current Aviation Weather for KCOD

Weather Summary


The most recent METAR observation for COD was updated at: 12:55 UTC
METAR for KCOD is not available. Closest METAR is for KPOY
KCOD  (most recent observation was updatred at 28:12 UTC)
281255Z AUTO 17004KT 10SM CLR 16/06 A3028 RMK AO1

KPOY  (23.1 nm SW)   (most recent observation was updated at 28:12 UTC)
281255Z AUTO 28004KT 10SM CLR 17/04 A3026 RMK AO2

KU68  (34.1 nm SW)   (most recent observation was updated at 28:13 UTC)
281300Z AUTO 25003KT 10SM CLR 17/07 A3021 RMK AO2

TAF for KCOD is not available.
KCOD
281124Z 2812/2912 VRB05KT P6SM FEW110 FM281900 03007KT P6SM VCSH SCT080 BKN150 FM282100 02011KT P6SM VCTS SCT080CB BKN120 FM290100 33005KT P6SM VCSH BKN110 FM290600 21006KT P6SM SCT110 AMD LTD TO CLD VIS AND WIND

GlobalAir.com is loading additional information.
 Current Weather at COD
57.0 F° (14.0 C°)

North winds at 0.0 mph
Pressure:
30.28 in
Humidity:
55%
Wind:
North at 0.0 mph
Dew Point:
41.0 F° (5.0 C°)
Visibility:
10.00 mi
COD NOAA Radar




Find All Airport Services Find A Hotel Find A Rental Car Find A Golf Course Find A Restaurant $100 Hamburger



Airport Weather Forecast for KCOD

Translated METAR for KCOD (1255 UTC)
METAR:
KCOD 281255Z AUTO 17004KT 10SM CLR 16/06 A3028 RMK AO1
Conditions at:
KCOD (Yellowstone Rgnl, WY) observed 1255 UTC 28 June 2016
Temperature:
16°C (60.8°F)
Dewpoint:
6°C (42.8°F) [RH = 51.5]
Pressure:
30.28 inches Hg (1025.4 mb)
Winds:
from the S (170 degrees) at 4.6 mph (4 knots: 2.1 m/s)
Visibility:
10 mile(s)
Ceiling:
at least 12,000 feet AGL
Clouds:
Clear below 12,000 feet AGL
Remarks:
site is un-manned
site is automated and does NOT have a precipitation sensor

Translated TAF for KCOD (Yellowstone Rgnl, WY) (1124 UTC)
TAF text:
KCOD 281124Z 2812/2912 VRB05KT P6SM FEW110
Forecast period:
Tuesday Jun 28 2016 12:00 UTC - Wednesday Jun 29 2016 12:00 UTC
Forecast type:
FROM: standard forecast or significant change
Winds:
variable wind direction at 5.8 mph (5 knots: 2.6 m/s)
Visibility:
6 or more mile(s) (9.7+ km)
Ceiling:
at least 12,000 feet AGL
Clouds:
Few Clouds at 11,000 feet AGL
Weather:
no significant weather observed at this time
TAF text:
FM281900 03007KT P6SM VCSH SCT080 BKN150
Forecast period:
Tuesday Jun 28 2016 19:00 UTC - Tuesday Jun 28 2016 21:00 UTC
Forecast type:
FROM: standard forecast or significant change
Winds:
from the NNE (030 degrees) at 8.1 mph (7 knots: 3.6 m/s)
Visibility:
6 or more mile(s) (9.7+ km)
Ceiling:
15,000 feet AGL
Clouds:
Scattered Clouds at 8,000 feet AGL
Broken Cloud Cover at 15,000 feet AGL
Weather:
Moderate In Vicinity Shower(s)
TAF text:
FM282100 02011KT P6SM VCTS SCT080CB BKN120
Forecast period:
Tuesday Jun 28 2016 21:00 UTC - Wednesday Jun 29 2016 01:00 UTC
Forecast type:
FROM: standard forecast or significant change
Winds:
from the NNE (020 degrees) at 12.7 mph (11 knots: 5.7 m/s)
Visibility:
6 or more mile(s) (9.7+ km)
Ceiling:
12,000 feet AGL
Clouds:
Broken Cloud Cover at 12,000 feet AGL
Weather:
Moderate In Vicinity Thunderstorm
TAF text:
FM290100 33005KT P6SM VCSH BKN110
Forecast period:
Wednesday Jun 29 2016 01:00 UTC - Wednesday Jun 29 2016 06:00 UTC
Forecast type:
FROM: standard forecast or significant change
Winds:
from the NNW (330 degrees) at 5.8 mph (5 knots: 2.6 m/s)
Visibility:
6 or more mile(s) (9.7+ km)
Ceiling:
11,000 feet AGL
Clouds:
Broken Cloud Cover at 11,000 feet AGL
Weather:
Moderate In Vicinity Shower(s)
TAF text:
FM290600 21006KT P6SM SCT110 LTD TO CLD VIS AND WIND
Forecast period:
Wednesday Jun 29 2016 06:00 UTC - Wednesday Jun 29 2016 12:00 UTC
Forecast type:
FROM: standard forecast or significant change
Winds:
from the SSW (210 degrees) at 6.9 mph (6 knots: 3.1 m/s)
Visibility:
6 or more mile(s) (9.7+ km)
Ceiling:
at least 12,000 feet AGL
Clouds:
Scattered Clouds at 11,000 feet AGL
Weather:
no significant weather observed at this time
FBO's on the Field
FBO Company Facility Photos Services Transportation Aviation Fuel Prices: Prices include tax
Catering Weather Repair Courtesy Rental Type 100LL JetA JetA+ MOGAS 8087
 
Choice Aviation, LLC

This FBO has not yet been rated
FS:Independent
Last Updated: Jun-20
Login to update fuel prices
SS:
Contact Choice Aviation, LLCMore FBO Information
 
Add another FBO Facility Photos Catering Weather Repair Courtesy Rental Type 100LL JetA JetA+ MOGAS 8087
Services Transportation Aviation Fuel Prices: Prices include tax


model-print
model-print
model-print
model-print